Time;durP1;ratioP1;P1;durP2;ratioP2;P2;SDS_P1;SDS_P2;PMS_P1;PMS_P2;Temp;Humidity;BMP_temperature;BMP_pressure;BME280_temperature;BME280_humidity;BME280_pressure;Samples;Min_cycle;Max_cycle;Signal;HPM_P1;HPM_P2
2024/01/08 00:02:12;;;;;;;1.00;1.00;;;;;;;-10.37;80.76;102846.59;5087027;28;20035;-64
2024/01/08 00:04:38;;;;;;;0.70;0.70;;;;;;;-10.34;80.84;102851.97;5102586;28;20028;-65
2024/01/08 00:07:03;;;;;;;0.77;0.77;;;;;;;-10.36;80.75;102843.38;5086940;28;20020;-64
2024/01/08 00:09:29;;;;;;;1.23;1.13;;;;;;;-10.37;80.74;102852.53;5087018;28;20107;-65
2024/01/08 00:11:54;;;;;;;0.70;0.70;;;;;;;-10.40;80.83;102833.69;5086853;28;20059;-65
2024/01/08 00:14:19;;;;;;;1.77;1.50;;;;;;;-10.36;80.84;102850.91;5102643;28;20058;-66
2024/01/08 00:16:45;;;;;;;0.60;0.60;;;;;;;-10.38;80.63;102848.22;5086705;28;20024;-65
2024/01/08 00:19:10;;;;;;;0.80;0.80;;;;;;;-10.37;80.73;102856.66;5086788;28;20036;-65
2024/01/08 00:21:35;;;;;;;1.98;1.88;;;;;;;-10.41;80.63;102857.03;5086871;28;20026;-64
2024/01/08 00:24:01;;;;;;;0.80;0.80;;;;;;;-10.35;80.76;102856.09;5085973;28;20025;-65
2024/01/08 00:26:26;;;;;;;2.55;2.35;;;;;;;-10.36;80.62;102843.38;5101815;28;20052;-64
2024/01/08 00:28:52;;;;;;;2.63;2.53;;;;;;;-10.38;80.71;102842.31;5102029;28;20021;-66
2024/01/08 00:31:17;;;;;;;1.35;1.35;;;;;;;-10.46;80.66;102832.25;5086315;28;20107;-65
2024/01/08 00:33:42;;;;;;;0.70;0.70;;;;;;;-10.37;80.37;102836.56;5086093;28;20028;-65
2024/01/08 00:36:08;;;;;;;1.13;1.02;;;;;;;-10.40;80.58;102832.09;5101986;28;20047;-65
2024/01/08 00:38:33;;;;;;;0.70;0.70;;;;;;;-10.34;80.52;102841.94;5086410;28;20047;-65
2024/01/08 00:40:58;;;;;;;0.80;0.80;;;;;;;-10.36;80.50;102856.84;5086394;28;20037;-65
2024/01/08 00:43:24;;;;;;;1.38;1.30;;;;;;;-10.40;80.57;102866.34;5101859;28;20024;-65
2024/01/08 00:45:49;;;;;;;1.02;1.02;;;;;;;-10.40;80.45;102868.84;5086376;28;20021;-64
2024/01/08 00:48:14;;;;;;;4.15;1.90;;;;;;;-10.47;80.40;102880.72;5086473;28;20115;-64
2024/01/08 00:50:40;;;;;;;1.42;1.40;;;;;;;-10.61;80.58;102846.47;5086228;28;20051;-64
2024/01/08 00:53:06;;;;;;;1.23;1.23;;;;;;;-10.54;80.59;102852.22;5101764;28;20081;-65
2024/01/08 00:55:31;;;;;;;1.27;1.27;;;;;;;-10.48;80.68;102863.84;5086376;28;20024;-65
2024/01/08 00:57:58;;;;;;;1.05;1.05;;;;;;;-10.48;80.68;102843.75;5086192;28;20465;-64
2024/01/08 01:00:24;;;;;;;1.40;1.27;;;;;;;-10.49;80.38;102836.94;5101665;28;20017;-65
2024/01/08 01:02:49;;;;;;;1.40;1.30;;;;;;;-10.50;80.47;102846.81;5086045;28;20036;-63
2024/01/08 01:05:14;;;;;;;1.48;1.45;;;;;;;-10.46;80.21;102847.31;5101439;28;20041;-64
2024/01/08 01:07:40;;;;;;;0.70;0.70;;;;;;;-10.48;80.32;102848.78;5086012;28;20031;-65
2024/01/08 01:10:05;;;;;;;0.82;0.82;;;;;;;-10.52;80.39;102850.75;5101471;28;20032;-64
2024/01/08 01:12:31;;;;;;;0.60;0.60;;;;;;;-10.53;80.39;102862.44;5085701;28;20464;-65
2024/01/08 01:14:56;;;;;;;0.73;0.73;;;;;;;-10.52;80.35;102871.75;5101442;28;20038;-65
2024/01/08 01:17:21;;;;;;;0.80;0.80;;;;;;;-10.56;80.33;102872.13;5101341;28;20025;-65
2024/01/08 01:19:47;;;;;;;1.30;1.30;;;;;;;-10.58;80.35;102876.06;5085793;28;20031;-64
2024/01/08 01:22:12;;;;;;;1.65;1.55;;;;;;;-10.59;80.38;102879.28;5085939;28;20025;-64
2024/01/08 01:24:38;;;;;;;0.80;0.80;;;;;;;-10.56;80.48;102883.78;5085442;28;20025;-63
2024/01/08 01:27:03;;;;;;;0.93;0.93;;;;;;;-10.62;80.42;102883.97;5101239;28;20078;-64
2024/01/08 01:29:28;;;;;;;3.47;3.20;;;;;;;-10.65;80.38;102879.44;5085543;28;20427;-65
2024/01/08 01:31:54;;;;;;;1.85;1.75;;;;;;;-10.64;80.38;102890.41;5100835;28;20053;-64
2024/01/08 01:34:19;;;;;;;0.70;0.70;;;;;;;-10.65;80.34;102903.69;5101128;28;20031;-65
2024/01/08 01:36:46;;;;;;;0.65;0.65;;;;;;;-10.73;80.45;102906.16;5085097;28;20097;-64
2024/01/08 01:39:11;;;;;;;0.70;0.70;;;;;;;-10.77;80.45;102896.50;5100646;28;20063;-64
2024/01/08 01:41:37;;;;;;;0.70;0.70;;;;;;;-10.78;80.36;102894.69;5085470;28;20348;-64
2024/01/08 01:44:02;;;;;;;0.70;0.70;;;;;;;-10.74;80.31;102905.97;5085251;28;20115;-63
2024/01/08 01:46:43;;;;;;;0.70;0.70;;;;;;;-10.74;80.48;102904.38;5100750;28;20039;-65
2024/01/08 01:49:11;;;;;;;0.85;0.85;;;;;;;-10.79;80.56;102897.91;5085426;28;20028;-64
2024/01/08 01:51:40;;;;;;;0.90;0.90;;;;;;;-10.74;80.51;102908.50;5085123;28;20032;-64
2024/01/08 01:54:05;;;;;;;0.70;0.70;;;;;;;-10.83;80.21;102895.75;5085194;28;20114;-66
2024/01/08 01:56:31;;;;;;;1.15;1.00;;;;;;;-10.78;80.28;102912.25;5085184;28;20435;-64
2024/01/08 01:58:57;;;;;;;1.80;1.70;;;;;;;-10.81;80.30;102916.91;5085117;28;20024;-64
2024/01/08 02:01:23;;;;;;;0.73;0.73;;;;;;;-10.79;80.38;102928.03;5084821;28;20055;-64
2024/01/08 02:03:49;;;;;;;0.77;0.77;;;;;;;-10.78;80.38;102929.81;5085090;28;20035;-64
2024/01/08 02:06:17;;;;;;;4.63;2.72;;;;;;;-10.84;80.22;102926.56;5085063;28;20032;-64
2024/01/08 02:08:44;;;;;;;0.77;0.77;;;;;;;-10.82;80.28;102930.19;5100557;28;20032;-64
2024/01/08 02:11:09;;;;;;;2.53;2.33;;;;;;;-10.80;80.56;102933.78;5084841;28;20055;-63
2024/01/08 02:13:35;;;;;;;1.25;1.23;;;;;;;-10.82;80.22;102932.69;5084880;28;20032;-64
2024/01/08 02:16:00;;;;;;;0.63;0.63;;;;;;;-10.88;80.35;102924.44;5085034;28;20084;-64
2024/01/08 02:18:25;;;;;;;0.90;0.90;;;;;;;-10.90;80.27;102939.31;5100319;28;20035;-65
2024/01/08 02:20:50;;;;;;;0.90;0.90;;;;;;;-10.87;80.36;102934.66;5100536;28;20074;-64
2024/01/08 02:23:16;;;;;;;0.93;0.93;;;;;;;-10.89;80.35;102927.66;5084757;28;20481;-64
2024/01/08 02:25:41;;;;;;;1.08;1.08;;;;;;;-10.96;80.43;102926.91;5100067;28;20024;-65
2024/01/08 02:28:07;;;;;;;0.77;0.77;;;;;;;-10.91;80.31;102926.56;5083547;28;20025;-64
2024/01/08 02:30:32;;;;;;;0.70;0.70;;;;;;;-10.93;80.25;102928.00;5084666;28;20029;-63
2024/01/08 02:32:57;;;;;;;1.00;1.00;;;;;;;-11.03;80.20;102911.84;5084646;28;20029;-64
2024/01/08 02:35:23;;;;;;;0.80;0.80;;;;;;;-10.99;80.44;102924.03;5084899;28;20083;-64
2024/01/08 02:37:48;;;;;;;0.90;0.90;;;;;;;-11.07;80.39;102922.22;5084533;28;20033;-63
2024/01/08 02:40:14;;;;;;;0.70;0.70;;;;;;;-11.02;80.27;102927.81;5084412;28;20383;-64
2024/01/08 02:42:40;;;;;;;0.65;0.65;;;;;;;-11.03;80.23;102931.91;5100366;28;20036;-64
2024/01/08 02:45:07;;;;;;;0.73;0.73;;;;;;;-11.12;80.13;102908.22;5084574;28;20080;-64
2024/01/08 02:47:37;;;;;;;1.35;1.30;;;;;;;-11.11;80.12;102908.41;5085280;28;20058;-63
2024/01/08 02:50:03;;;;;;;0.90;0.90;;;;;;;-11.12;80.27;102904.13;5088818;28;20025;-65
2024/01/08 02:52:28;;;;;;;0.98;0.82;;;;;;;-11.12;80.17;102914.16;5088555;28;20392;-65
2024/01/08 02:54:54;;;;;;;0.80;0.80;;;;;;;-11.09;80.29;102904.50;5088524;28;20543;-64
2024/01/08 02:57:19;;;;;;;0.70;0.70;;;;;;;-11.07;80.22;102907.19;5088334;28;20039;-64
2024/01/08 02:59:44;;;;;;;5.78;3.83;;;;;;;-11.10;80.10;102915.22;5088380;28;20036;-65
2024/01/08 03:02:10;;;;;;;0.73;0.73;;;;;;;-11.12;80.08;102909.13;5088324;28;20024;-64
2024/01/08 03:04:35;;;;;;;1.00;1.00;;;;;;;-11.13;80.10;102914.84;5088574;28;20036;-64
2024/01/08 03:07:02;;;;;;;0.80;0.80;;;;;;;-11.18;79.99;102917.53;5088087;28;20036;-64
2024/01/08 03:09:27;;;;;;;0.70;0.70;;;;;;;-11.18;80.16;102932.59;5103929;28;20036;-65
2024/01/08 03:11:52;;;;;;;0.70;0.70;;;;;;;-11.21;79.84;102934.00;5088133;28;20032;-64
2024/01/08 03:14:18;;;;;;;0.70;0.70;;;;;;;-11.20;79.89;102935.78;5088242;28;20056;-62
2024/01/08 03:16:43;;;;;;;2.47;2.28;;;;;;;-11.23;80.08;102925.38;5087823;28;20055;-64
2024/01/08 03:19:08;;;;;;;0.70;0.70;;;;;;;-11.27;79.90;102920.72;5088016;28;20100;-64
2024/01/08 03:21:34;;;;;;;0.80;0.80;;;;;;;-11.25;80.00;102920.91;5086608;28;20404;-64
2024/01/08 03:24:00;;;;;;;1.63;1.52;;;;;;;-11.29;79.96;102928.78;5103711;28;20029;-65
2024/01/08 03:26:25;;;;;;;2.65;2.45;;;;;;;-11.35;79.86;102931.41;5087902;28;20025;-63
2024/01/08 03:28:50;;;;;;;1.52;1.42;;;;;;;-11.41;79.85;102928.16;5086509;28;20016;-64
2024/01/08 03:31:16;;;;;;;0.60;0.60;;;;;;;-11.45;79.84;102942.84;5087541;28;20028;-65
2024/01/08 03:33:41;;;;;;;1.02;0.88;;;;;;;-11.44;79.99;102951.28;5103278;28;20032;-64
2024/01/08 03:36:10;;;;;;;1.35;1.35;;;;;;;-11.47;79.90;102939.25;5087735;28;20047;-64
2024/01/08 03:38:35;;;;;;;0.80;0.80;;;;;;;-11.49;80.30;102935.66;5087439;28;20056;-64
2024/01/08 03:41:01;;;;;;;0.80;0.80;;;;;;;-11.46;80.26;102961.13;5087477;28;20036;-64
2024/01/08 03:43:26;;;;;;;4.85;4.43;;;;;;;-11.46;80.08;102957.69;5087646;28;20032;-64
2024/01/08 03:45:51;;;;;;;1.55;1.45;;;;;;;-11.49;80.22;102954.81;5087196;28;20107;-63
2024/01/08 03:48:17;;;;;;;3.42;1.92;;;;;;;-11.49;80.37;102959.84;5087567;28;20444;-64
2024/01/08 03:50:42;;;;;;;1.13;1.13;;;;;;;-11.47;80.06;102959.31;5087497;28;20025;-64
2024/01/08 03:53:07;;;;;;;0.73;0.73;;;;;;;-11.51;80.29;102949.63;5086881;28;20063;-64
2024/01/08 03:55:34;;;;;;;2.78;2.58;;;;;;;-11.54;80.27;102949.25;5087501;28;20071;-64
2024/01/08 03:57:59;;;;;;;2.50;2.30;;;;;;;-11.53;80.24;102966.06;5087200;28;20062;-66
2024/01/08 04:00:25;;;;;;;5.20;2.53;;;;;;;-11.58;80.24;102960.50;5102591;28;20092;-64
2024/01/08 04:02:50;;;;;;;0.82;0.82;;;;;;;-11.57;80.44;102973.94;5103023;28;20086;-64
2024/01/08 04:05:15;;;;;;;1.25;1.25;;;;;;;-11.60;80.40;102969.47;5087377;28;20024;-64
2024/01/08 04:07:41;;;;;;;1.15;1.13;;;;;;;-11.61;80.46;102976.78;5087204;28;20028;-64
2024/01/08 04:10:07;;;;;;;2.13;2.03;;;;;;;-11.70;80.39;102974.03;5087067;28;20109;-63
2024/01/08 04:12:33;;;;;;;3.20;2.45;;;;;;;-11.67;80.36;102978.50;5086995;28;20096;-65
2024/01/08 04:14:58;;;;;;;1.27;1.27;;;;;;;-11.66;80.37;102976.19;5086889;28;20447;-65
2024/01/08 04:17:26;;;;;;;1.42;1.33;;;;;;;-11.68;80.20;102971.72;5086781;28;20481;-65
2024/01/08 04:19:51;;;;;;;1.00;1.00;;;;;;;-11.77;80.32;102959.84;5086982;28;20031;-64
2024/01/08 04:22:17;;;;;;;1.02;1.02;;;;;;;-11.77;80.44;102966.47;5086944;28;20017;-64
2024/01/08 04:24:43;;;;;;;0.68;0.68;;;;;;;-11.77;80.25;102962.34;5086818;28;20058;-63
2024/01/08 04:27:08;;;;;;;1.38;1.33;;;;;;;-11.77;80.24;102967.34;5086653;28;20028;-65
2024/01/08 04:29:33;;;;;;;1.00;1.00;;;;;;;-11.80;80.45;102968.59;5102448;28;20043;-64
2024/01/08 04:31:59;;;;;;;0.70;0.70;;;;;;;-11.85;80.17;102975.56;5086512;28;20557;-64
2024/01/08 04:34:26;;;;;;;0.80;0.80;;;;;;;-11.80;79.99;102992.03;5086794;28;20024;-63
2024/01/08 04:36:51;;;;;;;0.70;0.70;;;;;;;-11.87;79.95;102985.38;5085289;28;20028;-64
2024/01/08 04:39:17;;;;;;;1.77;1.67;;;;;;;-12.00;80.03;102955.41;5086432;28;20052;-64
2024/01/08 04:41:42;;;;;;;1.10;1.10;;;;;;;-11.91;80.02;102980.69;5086680;28;20032;-64
2024/01/08 04:44:09;;;;;;;0.70;0.70;;;;;;;-11.92;80.05;102975.47;5102085;28;20035;-65
2024/01/08 04:46:34;;;;;;;0.90;0.90;;;;;;;-11.93;80.15;102978.72;5086263;28;20044;-64
2024/01/08 04:48:59;;;;;;;0.73;0.73;;;;;;;-11.98;80.20;102971.50;5102103;28;20025;-66
2024/01/08 04:51:25;;;;;;;0.70;0.70;;;;;;;-12.07;80.20;102958.75;5086291;28;20025;-65
2024/01/08 04:53:51;;;;;;;1.02;1.02;;;;;;;-12.04;80.24;102963.22;5086339;28;20031;-65
2024/01/08 04:56:24;;;;;;;0.80;0.80;;;;;;;-11.99;80.26;102977.22;5086253;28;20480;-64
2024/01/08 04:58:51;;;;;;;0.75;0.75;;;;;;;-12.01;80.17;102975.25;5101849;28;20036;-65
2024/01/08 05:01:17;;;;;;;0.93;0.93;;;;;;;-12.05;80.16;102978.97;5085775;28;20032;-65
2024/01/08 05:03:43;;;;;;;0.80;0.80;;;;;;;-12.02;80.06;102981.84;5086007;28;20032;-65
2024/01/08 05:06:09;;;;;;;0.60;0.60;;;;;;;-12.06;80.31;102977.19;5085895;28;20051;-65
2024/01/08 05:08:35;;;;;;;0.75;0.75;;;;;;;-12.18;80.13;102960.63;5085899;28;20055;-66
2024/01/08 05:11:00;;;;;;;0.70;0.70;;;;;;;-12.09;79.95;102981.84;5085429;28;20028;-66
2024/01/08 05:13:26;;;;;;;0.70;0.70;;;;;;;-12.11;80.07;102980.75;5085911;28;20040;-66
2024/01/08 05:15:51;;;;;;;0.90;0.90;;;;;;;-12.19;79.96;102974.78;5085617;28;20036;-66
2024/01/08 05:18:16;;;;;;;6.93;6.20;;;;;;;-12.17;80.32;102978.34;5101745;28;20038;-66
2024/01/08 05:20:42;;;;;;;1.08;1.08;;;;;;;-12.17;80.07;102977.47;5085851;28;20076;-66
2024/01/08 05:23:07;;;;;;;0.70;0.70;;;;;;;-12.17;80.14;102974.97;5085630;28;20029;-65
2024/01/08 05:25:35;;;;;;;1.55;1.45;;;;;;;-12.24;80.34;102969.19;5085747;28;20035;-64
2024/01/08 05:28:01;;;;;;;0.80;0.80;;;;;;;-12.17;80.16;102978.34;5085707;28;20020;-64
2024/01/08 05:30:26;;;;;;;1.95;1.85;;;;;;;-12.21;80.13;102986.19;5085208;28;20286;-66
2024/01/08 05:32:53;;;;;;;1.90;1.80;;;;;;;-12.21;80.16;102982.09;5085567;28;20025;-66
2024/01/08 05:35:18;;;;;;;1.33;1.27;;;;;;;-12.23;80.04;102986.00;5085381;28;20024;-66
2024/01/08 05:37:44;;;;;;;0.70;0.70;;;;;;;-12.26;80.04;102987.22;5085450;28;20354;-64
2024/01/08 05:40:10;;;;;;;1.13;1.02;;;;;;;-12.35;80.26;102971.94;5100948;28;20370;-64
2024/01/08 05:42:35;;;;;;;0.80;0.80;;;;;;;-12.33;79.97;102973.06;5085516;28;20025;-64
2024/01/08 05:45:01;;;;;;;15.95;2.05;;;;;;;-12.46;79.86;102955.56;5101336;28;20021;-64
2024/01/08 05:47:26;;;;;;;0.70;0.70;;;;;;;-12.42;80.04;102974.38;5084925;28;20029;-65
2024/01/08 05:49:51;;;;;;;0.68;0.68;;;;;;;-12.47;79.94;102966.28;5085462;28;20035;-65
2024/01/08 05:52:17;;;;;;;0.70;0.70;;;;;;;-12.49;80.01;102968.59;5100706;28;20395;-64
2024/01/08 05:54:42;;;;;;;1.00;1.00;;;;;;;-12.47;79.92;102977.19;5085359;28;20441;-67
2024/01/08 05:57:07;;;;;;;0.95;0.95;;;;;;;-12.51;79.92;102969.09;5085296;28;20579;-64
2024/01/08 05:59:33;;;;;;;0.80;0.80;;;;;;;-12.45;79.89;102990.81;5100824;28;20035;-65
2024/01/08 06:01:59;;;;;;;0.80;0.80;;;;;;;-12.51;79.77;102990.03;5085054;28;20115;-65
2024/01/08 06:04:24;;;;;;;0.93;0.93;;;;;;;-12.49;79.94;102992.75;5100791;28;20024;-64
2024/01/08 06:06:51;;;;;;;2.35;2.25;;;;;;;-12.58;79.98;102989.94;5085245;28;20445;-65
2024/01/08 06:09:17;;;;;;;0.80;0.80;;;;;;;-12.55;79.89;102991.97;5085214;28;20028;-66
2024/01/08 06:11:42;;;;;;;1.17;1.17;;;;;;;-12.57;80.06;102985.13;5085319;28;20028;-67
2024/01/08 06:14:07;;;;;;;0.70;0.70;;;;;;;-12.51;79.96;102989.13;5084980;28;20059;-65
2024/01/08 06:16:35;;;;;;;0.70;0.70;;;;;;;-12.47;79.90;102988.81;5084787;28;20051;-66
2024/01/08 06:19:02;;;;;;;1.05;1.00;;;;;;;-12.58;79.91;102972.44;5100313;28;20020;-65
2024/01/08 06:21:27;;;;;;;0.60;0.60;;;;;;;-12.54;80.07;102982.16;5084517;28;20020;-65
2024/01/08 06:23:53;;;;;;;2.80;2.60;;;;;;;-12.53;80.02;102988.94;5087953;28;20100;-66
2024/01/08 06:26:18;;;;;;;0.90;0.90;;;;;;;-12.60;79.92;102968.84;5089250;28;20099;-66
2024/01/08 06:28:43;;;;;;;0.88;0.88;;;;;;;-12.55;80.00;102970.31;5104826;28;20566;-65
2024/01/08 06:31:09;;;;;;;0.65;0.65;;;;;;;-12.61;79.81;102965.44;5088893;28;20084;-66
2024/01/08 06:33:34;;;;;;;0.68;0.68;;;;;;;-12.58;79.83;102972.44;5089018;28;20158;-65
2024/01/08 06:36:00;;;;;;;1.17;1.00;;;;;;;-12.55;79.91;102977.81;5104328;28;20460;-65
2024/01/08 06:38:26;;;;;;;0.63;0.63;;;;;;;-12.55;79.90;102965.31;5089148;28;20063;-65
2024/01/08 06:40:51;;;;;;;0.77;0.77;;;;;;;-12.40;79.93;102970.47;5088822;28;20051;-65
2024/01/08 06:43:16;;;;;;;0.77;0.77;;;;;;;-12.32;80.23;102967.31;5088689;28;20025;-65
2024/01/08 06:45:42;;;;;;;1.25;1.25;;;;;;;-12.27;80.19;102958.78;5088838;28;20034;-66
2024/01/08 06:48:07;;;;;;;0.70;0.70;;;;;;;-12.17;80.17;102978.34;5088654;28;20074;-65
2024/01/08 06:50:33;;;;;;;0.80;0.80;;;;;;;-12.12;80.29;102986.47;5088572;28;20036;-66
2024/01/08 06:52:58;;;;;;;0.70;0.70;;;;;;;-12.15;80.42;102973.53;5088697;28;20035;-66
2024/01/08 06:55:24;;;;;;;0.95;0.95;;;;;;;-12.11;80.35;102980.75;5088663;28;20065;-66
2024/01/08 06:57:52;;;;;;;0.70;0.70;;;;;;;-12.11;80.38;102963.22;5088423;28;20467;-65
2024/01/08 07:00:18;;;;;;;0.73;0.73;;;;;;;-11.96;80.49;102977.59;5104012;28;20028;-66
2024/01/08 07:02:43;;;;;;;0.70;0.70;;;;;;;-11.90;80.73;102974.06;5088154;28;20066;-65
2024/01/08 07:05:09;;;;;;;0.70;0.70;;;;;;;-11.96;80.62;102957.56;5104074;28;20048;-66
2024/01/08 07:07:36;;;;;;;0.80;0.80;;;;;;;-11.84;80.65;102962.31;5088177;28;20025;-65
2024/01/08 07:10:01;;;;;;;0.80;0.80;;;;;;;-11.66;80.72;102978.69;5103694;28;20031;-66
2024/01/08 07:12:26;;;;;;;1.00;1.00;;;;;;;-11.64;80.55;102969.78;5087417;28;20052;-65
2024/01/08 07:14:52;;;;;;;0.65;0.65;;;;;;;-11.63;80.77;102980.72;5088387;28;20052;-66
2024/01/08 07:17:18;;;;;;;2.30;1.92;;;;;;;-11.64;80.57;102978.88;5103680;28;20021;-66
2024/01/08 07:19:43;;;;;;;0.73;0.73;;;;;;;-11.61;80.47;102977.66;5103980;28;20031;-66
2024/01/08 07:22:09;;;;;;;0.70;0.70;;;;;;;-11.57;80.55;102973.94;5103859;28;20031;-66
2024/01/08 07:24:34;;;;;;;2.00;1.45;;;;;;;-11.48;80.80;102977.56;5088091;28;20035;-66
2024/01/08 07:27:00;;;;;;;0.73;0.73;;;;;;;-11.50;80.97;102983.13;5088016;28;20069;-67
2024/01/08 07:29:25;;;;;;;0.82;0.82;;;;;;;-11.47;80.76;102984.38;5088038;28;20028;-66
2024/01/08 07:31:50;;;;;;;0.95;0.95;;;;;;;-11.45;80.82;102977.03;5087694;28;20056;-66
2024/01/08 07:34:16;;;;;;;0.70;0.70;;;;;;;-11.40;81.03;102985.13;5087433;28;20541;-66
2024/01/08 07:36:43;;;;;;;1.00;1.00;;;;;;;-11.40;80.73;102993.56;5103328;28;20029;-65
2024/01/08 07:39:11;;;;;;;0.95;0.90;;;;;;;-11.35;80.62;102991.59;5087716;28;20078;-67
2024/01/08 07:41:36;;;;;;;1.90;1.80;;;;;;;-11.29;80.77;103002.38;5103032;28;20033;-67
2024/01/08 07:44:05;;;;;;;0.80;0.80;;;;;;;-11.27;80.66;103005.09;5087701;28;20028;-66
2024/01/08 07:46:32;;;;;;;1.30;1.02;;;;;;;-11.16;80.98;103012.31;5103132;28;20021;-67
2024/01/08 07:48:58;;;;;;;2.05;1.77;;;;;;;-11.12;80.90;103012.00;5088027;28;20024;-67
2024/01/08 07:51:24;;;;;;;5.35;3.60;;;;;;;-11.04;81.21;103015.44;5103239;28;20029;-67
2024/01/08 07:53:50;;;;;;;0.77;0.77;;;;;;;-10.98;81.30;103021.19;5103337;28;20038;-67
2024/01/08 07:56:16;;;;;;;0.80;0.80;;;;;;;-10.97;81.33;103023.00;5087541;28;20032;-67
2024/01/08 07:58:41;;;;;;;0.73;0.73;;;;;;;-10.79;81.16;103030.03;5102960;28;20058;-66
2024/01/08 08:01:08;;;;;;;1.42;0.98;;;;;;;-10.71;81.52;103030.28;5087277;28;20035;-66
2024/01/08 08:03:34;;;;;;;0.70;0.70;;;;;;;-10.78;81.53;103000.09;5087452;28;20024;-65
2024/01/08 08:05:59;;;;;;;1.05;1.05;;;;;;;-10.80;81.53;102983.06;5086985;28;20025;-66
2024/01/08 08:08:24;;;;;;;6.93;2.60;;;;;;;-10.53;81.56;103032.28;5087442;28;20029;-67
2024/01/08 08:10:50;;;;;;;1.35;1.30;;;;;;;-10.44;81.51;103025.81;5087019;28;20063;-67
2024/01/08 08:13:16;;;;;;;5.13;2.55;;;;;;;-10.41;81.69;103027.81;5087350;28;20025;-66
2024/01/08 08:15:41;;;;;;;4.30;1.20;;;;;;;-10.38;81.72;103021.53;5102660;28;20073;-67
2024/01/08 08:18:07;;;;;;;2.25;2.13;;;;;;;-10.23;81.54;103036.63;5102655;28;20021;-67
2024/01/08 08:20:33;;;;;;;0.68;0.68;;;;;;;-10.20;81.88;103042.03;5102862;28;20098;-65
2024/01/08 08:22:59;;;;;;;0.70;0.70;;;;;;;-10.24;81.90;103033.22;5102559;28;20040;-66
2024/01/08 08:25:25;;;;;;;1.02;1.02;;;;;;;-10.19;81.73;103036.25;5087202;28;20093;-66
2024/01/08 08:27:50;;;;;;;2.03;1.92;;;;;;;-10.07;81.85;103036.84;5102308;28;20025;-66
2024/01/08 08:30:19;;;;;;;1.23;1.23;;;;;;;-10.06;82.03;103018.50;5086971;28;20416;-66
2024/01/08 08:32:45;;;;;;;0.60;0.60;;;;;;;-9.84;81.99;103051.22;5086937;28;20024;-66
2024/01/08 08:35:10;;;;;;;1.40;1.27;;;;;;;-9.77;82.09;103047.78;5102344;28;20035;-67
2024/01/08 08:37:38;;;;;;;5.38;2.13;;;;;;;-9.71;81.95;103039.34;5086858;28;20473;-67
2024/01/08 08:40:04;;;;;;;2.47;2.28;;;;;;;-9.58;82.03;103053.34;5102359;28;20126;-66
2024/01/08 08:42:30;;;;;;;0.80;0.80;;;;;;;-9.47;81.92;103047.97;5086415;28;20480;-67
2024/01/08 08:44:55;;;;;;;5.30;2.17;;;;;;;-9.43;81.87;103038.25;5086101;28;20047;-66
2024/01/08 08:47:21;;;;;;;0.98;0.98;;;;;;;-9.28;82.01;103034.97;5086140;28;20032;-67
2024/01/08 08:49:46;;;;;;;0.80;0.80;;;;;;;-9.25;81.79;103025.25;5086545;28;20039;-66
2024/01/08 08:52:13;;;;;;;2.65;2.55;;;;;;;-9.18;82.00;103031.03;5086399;28;20016;-67
2024/01/08 08:54:38;;;;;;;5.97;3.50;;;;;;;-9.14;81.86;103026.53;5086529;28;20083;-66
2024/01/08 08:57:06;;;;;;;19.60;2.58;;;;;;;-9.13;81.97;103022.38;5086341;28;20024;-66
2024/01/08 08:59:31;;;;;;;5.55;1.98;;;;;;;-9.06;82.00;103029.00;5086362;28;20046;-67
2024/01/08 09:01:57;;;;;;;0.90;0.90;;;;;;;-9.02;82.04;103044.63;5085968;28;20020;-67
2024/01/08 09:04:23;;;;;;;0.70;0.70;;;;;;;-8.99;82.01;103046.59;5101821;28;20029;-66
2024/01/08 09:06:48;;;;;;;0.80;0.80;;;;;;;-8.91;81.83;103055.03;5101722;28;20117;-66
2024/01/08 09:09:16;;;;;;;1.65;1.40;;;;;;;-9.01;81.87;103026.28;5086169;28;20052;-68
2024/01/08 09:11:42;;;;;;;0.75;0.75;;;;;;;-8.86;81.93;103041.34;5085915;28;20080;-67
2024/01/08 09:14:08;;;;;;;3.83;3.53;;;;;;;-8.83;82.02;103054.28;5086183;28;20024;-67
2024/01/08 09:16:34;;;;;;;1.10;1.10;;;;;;;-8.82;81.86;103053.56;5101421;28;20024;-67
2024/01/08 09:19:00;;;;;;;1.27;1.27;;;;;;;-8.80;81.95;103057.13;5085892;28;20546;-67
2024/01/08 09:21:25;;;;;;;1.45;1.00;;;;;;;-8.87;81.95;103035.41;5085687;28;20048;-67
2024/01/08 09:23:51;;;;;;;1.23;1.17;;;;;;;-8.74;82.11;103052.78;5086080;28;20024;-68
2024/01/08 09:26:16;;;;;;;5.38;3.10;;;;;;;-8.63;82.00;103064.09;5101272;28;20028;-68
2024/01/08 09:28:41;;;;;;;0.70;0.70;;;;;;;-8.63;82.14;103065.72;5101623;28;20030;-67
2024/01/08 09:31:07;;;;;;;2.55;2.35;;;;;;;-8.55;82.26;103061.53;5085454;28;20025;-67
2024/01/08 09:33:40;;;;;;;1.00;1.00;;;;;;;-8.52;82.44;103052.69;5101011;28;20052;-68
2024/01/08 09:36:05;;;;;;;15.10;4.43;;;;;;;-8.55;82.25;103031.31;5100985;28;20082;-68
2024/01/08 09:38:30;;;;;;;1.88;1.65;;;;;;;-8.40;82.40;103050.63;5101411;28;20067;-67
2024/01/08 09:40:56;;;;;;;2.40;2.30;;;;;;;-8.30;82.44;103052.56;5101111;28;20111;-66
2024/01/08 09:43:22;;;;;;;0.95;0.95;;;;;;;-8.26;82.44;103054.69;5085582;28;20032;-68
2024/01/08 09:45:47;;;;;;;1.40;1.30;;;;;;;-8.15;82.41;103068.50;5085481;28;20069;-67
2024/01/08 09:48:13;;;;;;;3.50;1.13;;;;;;;-8.16;82.59;103058.25;5101136;28;20111;-67
2024/01/08 09:50:38;;;;;;;1.45;1.42;;;;;;;-8.08;82.56;103067.53;5085399;28;20020;-67
2024/01/08 09:53:04;;;;;;;2.72;2.60;;;;;;;-7.99;82.44;103063.53;5083962;28;20074;-68
2024/01/08 09:55:30;;;;;;;6.82;2.35;;;;;;;-7.90;82.28;103058.59;5085552;28;20043;-67
2024/01/08 09:57:55;;;;;;;5.70;3.13;;;;;;;-7.78;82.43;103076.69;5085231;28;20051;-67
2024/01/08 10:00:21;;;;;;;1.98;1.88;;;;;;;-7.76;82.80;103067.66;5085385;28;20017;-67
2024/01/08 10:02:58;;;;;;;1.33;1.33;;;;;;;-7.68;82.42;103073.53;5100826;28;20082;-67
2024/01/08 10:05:27;;;;;;;5.05;2.35;;;;;;;-7.55;82.67;103073.25;5085356;28;20020;-67
2024/01/08 10:07:53;;;;;;;0.70;0.70;;;;;;;-7.42;82.58;103072.06;5085243;28;20024;-67
2024/01/08 10:10:19;;;;;;;1.92;1.77;;;;;;;-7.26;82.70;103072.09;5085208;28;20051;-67
2024/01/08 10:12:49;;;;;;;5.75;2.08;;;;;;;-7.19;82.83;103068.59;5100751;28;20021;-68
2024/01/08 10:15:18;;;;;;;2.00;1.88;;;;;;;-7.01;82.99;103069.69;5101043;28;20016;-68
2024/01/08 10:17:46;;;;;;;4.03;1.55;;;;;;;-6.93;82.82;103061.28;5100296;28;20024;-67
2024/01/08 10:20:33;;;;;;;3.00;2.90;;;;;;;-6.94;82.74;103044.34;5085200;28;20016;-66
2024/01/08 10:23:08;;;;;;;0.73;0.73;;;;;;;-6.65;82.71;103063.31;5084654;28;20032;-67
2024/01/08 10:25:38;;;;;;;0.95;0.90;;;;;;;-6.62;82.86;103059.47;5085299;28;20047;-67
2024/01/08 10:28:12;;;;;;;1.00;1.00;;;;;;;-6.56;82.75;103048.19;5085075;28;20034;-67
2024/01/08 10:30:40;;;;;;;1.25;1.25;;;;;;;-6.49;82.50;103049.03;5084889;28;20024;-67
2024/01/08 10:33:07;;;;;;;1.35;1.35;;;;;;;-6.43;82.59;103052.91;5085097;28;20592;-67
2024/01/08 10:35:34;;;;;;;5.75;2.28;;;;;;;-6.41;82.44;103042.22;5100499;28;20472;-66
2024/01/08 10:38:01;;;;;;;2.30;1.60;;;;;;;-6.30;82.40;103062.66;5084832;28;20449;-67
2024/01/08 10:40:28;;;;;;;1.38;1.33;;;;;;;-6.23;82.75;103047.41;5084718;28;20052;-67
2024/01/08 10:42:53;;;;;;;1.42;1.33;;;;;;;-6.22;82.35;103039.97;5084953;28;20037;-67
2024/01/08 10:45:19;;;;;;;2.80;0.90;;;;;;;-6.20;82.34;103031.63;5085009;28;20021;-67
2024/01/08 10:47:56;;;;;;;0.70;0.70;;;;;;;-6.11;82.39;103035.09;5084687;28;20088;-67
2024/01/08 10:50:24;;;;;;;4.90;1.98;;;;;;;-6.12;82.27;103029.16;5100556;28;20117;-67
2024/01/08 10:52:56;;;;;;;1.98;1.88;;;;;;;-6.10;82.33;103025.16;5084799;28;20020;-68
2024/01/08 10:55:25;;;;;;;2.47;2.38;;;;;;;-6.02;82.42;103028.41;5084996;28;20020;-68
2024/01/08 10:57:51;;;;;;;1.95;1.38;;;;;;;-5.97;82.45;103026.34;5084778;28;20025;-67
2024/01/08 11:00:17;;;;;;;3.80;3.55;;;;;;;-5.93;82.45;103027.56;5100486;28;20048;-67
2024/01/08 11:02:44;;;;;;;1.13;1.13;;;;;;;-5.87;82.46;103018.97;5084517;28;20020;-67
2024/01/08 11:05:10;;;;;;;7.35;1.35;;;;;;;-5.81;82.30;103026.28;5084858;28;20021;-66
2024/01/08 11:07:40;;;;;;;3.03;1.25;;;;;;;-5.75;82.24;103018.44;5084545;28;20031;-65
2024/01/08 11:10:09;;;;;;;1.08;1.08;;;;;;;-5.64;82.24;103024.56;5103332;28;20044;-66
2024/01/08 11:12:41;;;;;;;3.08;2.80;;;;;;;-5.53;82.40;103024.00;5088445;28;20017;-65
2024/01/08 11:15:08;;;;;;;0.80;0.80;;;;;;;-5.45;82.25;103031.47;5088636;28;20123;-66